Omskiy-141 — UGZK — position and weather

sailwx.info

Track history (hours):
 
Tides and Currents Weather Stations Pressure Air Temp Water Temp Dewpoint Dewpoint Depression Visibility Wind Speed Wind Dir Waves Ship Positions

Omskiy-141

Last reported at 2014-Nov-27 20:14 UTC. Time now 2014-Nov-28 09:49 UTC.
Position N 54°39' E 019°49'.

Length 108 m; draft 2.6 m.

Type: Cargo ship. MMSI: 273310600.

Date/timePositionNaut miles runAvg speedWind from/ knotsBaromVisibWave heightAir tempDewpointWater temp
2014-Nov-27 20:14N 54°39' E 019°49'6 8.2
2014-Nov-27 19:29N 54°41' E 019°40'8 8.8
2014-Nov-27 18:33N 54°41' E 019°25'9 8.7
2014-Nov-27 17:33N 54°41' E 019°10'8 8.1
2014-Nov-27 16:33N 54°39' E 018°57'9 9.1
2014-Nov-27 15:33N 54°31' E 018°48'8 8.4
2014-Nov-27 14:33N 54°24' E 018°40'2 1.5
2014-Nov-27 13:31N 54°23' E 018°40'0 0.0
2014-Nov-27 12:31N 54°23' E 018°40'0 0.0
2014-Nov-27 11:31N 54°23' E 018°40'0 0.0
2014-Nov-27 10:31N 54°23' E 018°40'0 0.0
2014-Nov-27 09:31N 54°23' E 018°40'0 0.0
2014-Nov-27 08:31N 54°23' E 018°40'0 0.0
2014-Nov-27 07:28N 54°23' E 018°40'0 0.0
2014-Nov-27 06:31N 54°23' E 018°40'0 0.0
2014-Nov-27 05:28N 54°23' E 018°40'0 0.0
2014-Nov-27 04:28N 54°23' E 018°40'0 0.0
2014-Nov-27 03:31N 54°23' E 018°40'0 0.0
2014-Nov-27 02:31N 54°23' E 018°40'0 0.0
2014-Nov-27 01:31N 54°23' E 018°40'0 0.0
2014-Nov-27 00:25N 54°23' E 018°40'0 0.0
2014-Nov-26 23:31N 54°23' E 018°40'0 0.0
2014-Nov-26 22:31N 54°23' E 018°40'0 0.0
2014-Nov-26 21:31N 54°23' E 018°40'0 0.0
2014-Nov-26 20:31N 54°23' E 018°40'0 0.0
2014-Nov-26 19:31N 54°23' E 018°40'0 0.0
2014-Nov-26 18:31N 54°23' E 018°40'0 0.0
2014-Nov-26 17:28N 54°23' E 018°40'0 0.0
2014-Nov-26 16:31N 54°23' E 018°40'0 0.0
2014-Nov-26 15:31N 54°23' E 018°40'0 0.0
2014-Nov-26 14:31N 54°23' E 018°40'0 0.0
2014-Nov-26 13:31N 54°23' E 018°40'0 0.0
2014-Nov-26 12:33N 54°23' E 018°40'5 5.2
2014-Nov-26 11:33N 54°28' E 018°42'8 8.5
2014-Nov-26 10:34N 54°34' E 018°51'9 8.8
2014-Nov-26 09:34N 54°42' E 018°58'9 8.5
2014-Nov-26 08:34N 54°50' E 019°05'8 8.4
2014-Nov-26 07:33N 54°57' E 019°11'9 8.5
2014-Nov-26 06:31N 55°05' E 019°18'  
2014-Nov-22 12:09N 60°01' E 026°29'5 8.3
2014-Nov-22 11:33N 60°01' E 026°39'  
2014-Nov-17 23:19N 59°59' E 026°41'  
Track history (hours):
 
Tides and Currents Weather Stations Pressure Air Temp Water Temp Dewpoint Dewpoint Depression Visibility Wind Speed Wind Dir Waves Ship Positions

Omskiy-141

Last reported at 2014-Nov-27 20:14 UTC. Time now 2014-Nov-28 09:49 UTC.
Position N 54°39' E 019°49'.

Length 108 m; draft 2.6 m.

Type: Cargo ship. MMSI: 273310600.

Date/timePositionNaut miles runAvg speedWind from/ knotsBaromVisibWave heightAir tempDewpointWater temp
2014-Nov-27 20:14N 54°39' E 019°49'6 8.2
2014-Nov-27 19:29N 54°41' E 019°40'8 8.8
2014-Nov-27 18:33N 54°41' E 019°25'9 8.7
2014-Nov-27 17:33N 54°41' E 019°10'8 8.1
2014-Nov-27 16:33N 54°39' E 018°57'9 9.1
2014-Nov-27 15:33N 54°31' E 018°48'8 8.4
2014-Nov-27 14:33N 54°24' E 018°40'2 1.5
2014-Nov-27 13:31N 54°23' E 018°40'0 0.0
2014-Nov-27 12:31N 54°23' E 018°40'0 0.0
2014-Nov-27 11:31N 54°23' E 018°40'0 0.0
2014-Nov-27 10:31N 54°23' E 018°40'0 0.0
2014-Nov-27 09:31N 54°23' E 018°40'0 0.0
2014-Nov-27 08:31N 54°23' E 018°40'0 0.0
2014-Nov-27 07:28N 54°23' E 018°40'0 0.0
2014-Nov-27 06:31N 54°23' E 018°40'0 0.0
2014-Nov-27 05:28N 54°23' E 018°40'0 0.0
2014-Nov-27 04:28N 54°23' E 018°40'0 0.0
2014-Nov-27 03:31N 54°23' E 018°40'0 0.0
2014-Nov-27 02:31N 54°23' E 018°40'0 0.0
2014-Nov-27 01:31N 54°23' E 018°40'0 0.0
2014-Nov-27 00:25N 54°23' E 018°40'0 0.0
2014-Nov-26 23:31N 54°23' E 018°40'0 0.0
2014-Nov-26 22:31N 54°23' E 018°40'0 0.0
2014-Nov-26 21:31N 54°23' E 018°40'0 0.0
2014-Nov-26 20:31N 54°23' E 018°40'0 0.0
2014-Nov-26 19:31N 54°23' E 018°40'0 0.0
2014-Nov-26 18:31N 54°23' E 018°40'0 0.0
2014-Nov-26 17:28N 54°23' E 018°40'0 0.0
2014-Nov-26 16:31N 54°23' E 018°40'0 0.0
2014-Nov-26 15:31N 54°23' E 018°40'0 0.0
2014-Nov-26 14:31N 54°23' E 018°40'0 0.0
2014-Nov-26 13:31N 54°23' E 018°40'0 0.0
2014-Nov-26 12:33N 54°23' E 018°40'5 5.2
2014-Nov-26 11:33N 54°28' E 018°42'8 8.5
2014-Nov-26 10:34N 54°34' E 018°51'9 8.8
2014-Nov-26 09:34N 54°42' E 018°58'9 8.5
2014-Nov-26 08:34N 54°50' E 019°05'8 8.4
2014-Nov-26 07:33N 54°57' E 019°11'9 8.5
2014-Nov-26 06:31N 55°05' E 019°18'  
2014-Nov-22 12:09N 60°01' E 026°29'5 8.3
2014-Nov-22 11:33N 60°01' E 026°39'  
2014-Nov-17 23:19N 59°59' E 026°41'  

Dump ship's entire track history